Time;durP1;ratioP1;P1;durP2;ratioP2;P2;SDS_P1;SDS_P2;PMS_P1;PMS_P2;Temp;Humidity;BMP_temperature;BMP_pressure;BME280_temperature;BME280_humidity;BME280_pressure;Samples;Min_cycle;Max_cycle;Signal;HPM_P1;HPM_P2
2022/10/02 00:01:58;;;;;;;;;;;17.60;59.70;;;;;;5013289;28;19992;-73
2022/10/02 00:04:26;;;;;;;;;;;17.50;59.70;;;;;;5013769;28;19914;-73
2022/10/02 00:06:51;;;;;;;;;;;17.50;59.80;;;;;;5012404;28;19921;-73
2022/10/02 00:09:19;;;;;;;;;;;17.60;59.80;;;;;;5012258;28;19971;-73
2022/10/02 00:11:45;;;;;;;;;;;17.60;59.70;;;;;;5012048;28;20337;-73
2022/10/02 00:14:12;;;;;;;;;;;17.60;59.70;;;;;;5012483;28;19910;-72
2022/10/02 00:16:41;;;;;;;;;;;17.70;59.70;;;;;;5011864;28;19915;-73
2022/10/02 00:19:10;;;;;;;;;;;17.60;59.60;;;;;;5012242;28;19909;-73
2022/10/02 00:21:54;;;;;;;;;;;17.60;59.50;;;;;;5011993;28;19920;-74
2022/10/02 00:24:23;;;;;;;;;;;17.60;59.40;;;;;;5013406;28;19914;-73
2022/10/02 00:26:56;;;;;;;;;;;17.60;59.60;;;;;;5012028;28;19909;-72
2022/10/02 00:29:31;;;;;;;;;;;17.60;59.50;;;;;;5012110;28;19941;-73
2022/10/02 00:32:00;;;;;;;;;;;17.70;59.60;;;;;;5011655;28;20399;-73
2022/10/02 00:34:35;;;;;;;;;;;17.60;59.50;;;;;;4995576;28;19910;-73
2022/10/02 00:37:07;;;;;;;;;;;17.60;59.50;;;;;;5011741;28;19999;-72
2022/10/02 00:39:39;;;;;;;;;;;17.60;59.60;;;;;;5011851;28;19960;-73
2022/10/02 00:42:08;;;;;;;;;;;17.60;59.40;;;;;;5011740;28;19918;-73
2022/10/02 00:44:52;;;;;;;;;;;17.60;59.60;;;;;;5012995;28;19916;-73
2022/10/02 00:47:24;;;;;;;;;;;17.60;59.60;;;;;;5012674;28;19914;-73
2022/10/02 00:49:49;;;;;;;;;;;17.60;59.60;;;;;;5013069;28;19963;-73
2022/10/02 00:52:24;;;;;;;;;;;17.60;59.50;;;;;;5012910;28;19999;-73
2022/10/02 00:54:52;;;;;;;;;;;17.60;59.40;;;;;;5012852;28;19913;-73
2022/10/02 00:57:22;;;;;;;;;;;17.70;59.50;;;;;;5012774;28;19913;-72
2022/10/02 01:00:14;;;;;;;;;;;17.60;59.30;;;;;;4994684;28;19910;-73
2022/10/02 01:02:42;;;;;;;;;;;17.60;59.40;;;;;;4990737;28;20397;-72
2022/10/02 01:05:08;;;;;;;;;;;17.60;59.50;;;;;;4993115;28;19972;-72
2022/10/02 01:07:34;;;;;;;;;;;17.60;59.40;;;;;;5008297;28;19993;-73
2022/10/02 01:10:00;;;;;;;;;;;17.60;59.50;;;;;;5011789;28;19917;-73
2022/10/02 01:12:25;;;;;;;;;;;17.50;59.40;;;;;;5011430;28;20003;-73
2022/10/02 01:14:51;;;;;;;;;;;17.50;59.60;;;;;;5027826;28;19941;-73
2022/10/02 01:17:20;;;;;;;;;;;17.50;59.60;;;;;;4994614;28;19909;-73
2022/10/02 01:19:46;;;;;;;;;;;17.50;59.80;;;;;;5011535;28;19910;-73
2022/10/02 01:22:17;;;;;;;;;;;17.50;59.60;;;;;;5013385;28;19913;-73
2022/10/02 01:24:46;;;;;;;;;;;17.50;59.60;;;;;;5016715;28;19956;-73
2022/10/02 01:27:11;;;;;;;;;;;17.50;59.50;;;;;;5016598;28;19909;-72
2022/10/02 01:29:36;;;;;;;;;;;17.60;59.40;;;;;;4998891;28;19928;-73
2022/10/02 01:32:02;;;;;;;;;;;17.60;59.40;;;;;;5016120;28;20325;-72
2022/10/02 01:34:27;;;;;;;;;;;17.60;59.20;;;;;;5016385;28;19933;-73
2022/10/02 01:36:53;;;;;;;;;;;17.60;59.20;;;;;;5016454;28;19914;-73
2022/10/02 01:39:18;;;;;;;;;;;17.60;59.10;;;;;;5016201;28;19917;-73
2022/10/02 01:41:44;;;;;;;;;;;17.70;59.10;;;;;;5016326;28;19953;-73
2022/10/02 01:44:09;;;;;;;;;;;17.70;59.10;;;;;;5016419;28;19920;-73
2022/10/02 01:46:58;;;;;;;;;;;17.70;59.10;;;;;;5014885;28;20059;-73
2022/10/02 01:49:30;;;;;;;;;;;17.60;59.10;;;;;;4993600;28;20357;-73
2022/10/02 01:52:01;;;;;;;;;;;17.60;59.10;;;;;;4996516;28;19921;-72
2022/10/02 01:54:29;;;;;;;;;;;17.60;59.10;;;;;;4996632;28;19910;-72
2022/10/02 01:57:09;;;;;;;;;;;17.60;59.10;;;;;;4996438;28;20000;-72
2022/10/02 01:59:41;;;;;;;;;;;17.70;59.00;;;;;;4996436;28;20344;-73
2022/10/02 02:02:10;;;;;;;;;;;17.70;59.00;;;;;;4994715;28;19917;-73
2022/10/02 02:04:41;;;;;;;;;;;17.70;59.00;;;;;;4996408;28;19913;-73
2022/10/02 02:07:10;;;;;;;;;;;17.70;59.10;;;;;;4994914;28;19928;-73
2022/10/02 02:09:40;;;;;;;;;;;17.70;59.00;;;;;;5024181;28;19997;-73
2022/10/02 02:12:18;;;;;;;;;;;17.70;59.00;;;;;;5014563;28;19909;-73
2022/10/02 02:14:47;;;;;;;;;;;17.70;58.90;;;;;;5014611;28;20339;-73
2022/10/02 02:17:21;;;;;;;;;;;17.70;58.90;;;;;;4997546;28;20281;-73
2022/10/02 02:19:47;;;;;;;;;;;17.70;58.90;;;;;;5015672;28;19909;-72
2022/10/02 02:22:17;;;;;;;;;;;17.70;59.00;;;;;;5014200;28;20022;-72
2022/10/02 02:24:51;;;;;;;;;;;17.60;58.90;;;;;;5014362;28;19909;-73
2022/10/02 02:27:18;;;;;;;;;;;17.60;59.00;;;;;;5015405;28;19955;-74
2022/10/02 02:29:45;;;;;;;;;;;17.60;59.00;;;;;;5015425;28;19910;-73
2022/10/02 02:32:12;;;;;;;;;;;17.60;59.00;;;;;;5014802;28;20289;-73
2022/10/02 02:34:42;;;;;;;;;;;17.60;59.00;;;;;;5013733;28;19910;-74
2022/10/02 02:37:10;;;;;;;;;;;17.60;59.00;;;;;;5013894;28;19917;-73
2022/10/02 02:39:56;;;;;;;;;;;17.60;59.00;;;;;;5014016;28;19920;-73
2022/10/02 02:42:22;;;;;;;;;;;17.60;59.00;;;;;;5014684;28;19956;-73
2022/10/02 02:44:49;;;;;;;;;;;17.60;59.00;;;;;;5014096;28;19910;-72
2022/10/02 02:47:18;;;;;;;;;;;17.70;59.00;;;;;;5013381;28;19910;-72
2022/10/02 02:50:04;;;;;;;;;;;17.60;59.00;;;;;;5014012;28;19913;-73
2022/10/02 02:52:34;;;;;;;;;;;17.60;59.00;;;;;;5013884;28;19916;-73
2022/10/02 02:55:05;;;;;;;;;;;17.60;58.90;;;;;;5013900;28;20370;-73
2022/10/02 02:57:32;;;;;;;;;;;17.60;58.90;;;;;;5014857;28;19914;-71
2022/10/02 02:59:57;;;;;;;;;;;17.70;59.00;;;;;;5013930;28;19960;-73
2022/10/02 03:02:23;;;;;;;;;;;17.60;59.00;;;;;;5013012;28;19917;-73
2022/10/02 03:04:48;;;;;;;;;;;17.60;58.90;;;;;;5014646;28;19909;-73
2022/10/02 03:07:14;;;;;;;;;;;17.60;58.90;;;;;;4996953;28;20004;-73
2022/10/02 03:09:41;;;;;;;;;;;17.60;58.90;;;;;;4997168;28;19917;-73
2022/10/02 03:12:11;;;;;;;;;;;17.60;59.00;;;;;;5013505;28;19917;-73
2022/10/02 03:14:47;;;;;;;;;;;17.70;59.00;;;;;;5013270;28;20401;-72
2022/10/02 03:17:31;;;;;;;;;;;17.60;58.90;;;;;;5013103;28;20474;-72
2022/10/02 03:20:09;;;;;;;;;;;17.60;58.90;;;;;;5014673;28;19910;-73
2022/10/02 03:22:53;;;;;;;;;;;17.60;59.00;;;;;;5014328;28;20297;-72
2022/10/02 03:25:21;;;;;;;;;;;17.60;58.90;;;;;;5014580;28;19909;-73
2022/10/02 03:27:49;;;;;;;;;;;17.60;58.90;;;;;;5014186;28;19914;-73
2022/10/02 03:30:19;;;;;;;;;;;17.60;58.90;;;;;;4996785;28;19920;-73
2022/10/02 03:32:45;;;;;;;;;;;17.70;58.80;;;;;;5012639;28;19909;-73
2022/10/02 03:35:11;;;;;;;;;;;17.70;58.80;;;;;;5013407;28;19932;-73
2022/10/02 03:37:41;;;;;;;;;;;17.70;58.80;;;;;;5012834;28;19932;-72
2022/10/02 03:40:06;;;;;;;;;;;17.70;58.80;;;;;;5012909;28;20434;-72
2022/10/02 03:42:32;;;;;;;;;;;17.70;58.70;;;;;;5012918;28;19917;-73
2022/10/02 03:44:57;;;;;;;;;;;17.70;58.70;;;;;;5028633;28;20000;-73
2022/10/02 03:47:23;;;;;;;;;;;17.70;58.70;;;;;;5012208;28;19972;-72
2022/10/02 03:49:48;;;;;;;;;;;17.70;58.70;;;;;;5012812;28;19916;-73
2022/10/02 03:52:15;;;;;;;;;;;17.70;58.60;;;;;;5013775;28;19917;-72
2022/10/02 03:54:40;;;;;;;;;;;17.70;58.60;;;;;;5029273;28;19913;-73
2022/10/02 03:57:07;;;;;;;;;;;17.70;58.70;;;;;;5028861;28;20028;-73
2022/10/02 03:59:35;;;;;;;;;;;17.70;58.80;;;;;;5029162;28;19925;-72
2022/10/02 04:02:02;;;;;;;;;;;17.60;58.80;;;;;;5028594;28;19967;-74
2022/10/02 04:04:28;;;;;;;;;;;17.70;58.80;;;;;;5012469;28;19916;-73
2022/10/02 04:07:03;;;;;;;;;;;17.70;58.80;;;;;;5028841;28;20383;-73
2022/10/02 04:09:39;;;;;;;;;;;17.70;58.80;;;;;;5016824;28;19909;-73
2022/10/02 04:12:07;;;;;;;;;;;17.70;58.80;;;;;;4979742;28;19909;-72
2022/10/02 04:14:34;;;;;;;;;;;17.70;58.80;;;;;;4995949;28;19949;-74
2022/10/02 04:17:01;;;;;;;;;;;17.70;58.70;;;;;;4995479;28;19952;-73
2022/10/02 04:19:43;;;;;;;;;;;17.70;58.80;;;;;;5012291;28;20013;-73
2022/10/02 04:22:27;;;;;;;;;;;17.70;58.70;;;;;;5012105;28;19921;-73
2022/10/02 04:24:56;;;;;;;;;;;17.70;58.80;;;;;;5012190;28;19909;-73
2022/10/02 04:27:27;;;;;;;;;;;17.60;58.80;;;;;;5013237;28;20324;-73
2022/10/02 04:29:57;;;;;;;;;;;17.60;58.90;;;;;;5013281;28;19939;-73
2022/10/02 04:32:22;;;;;;;;;;;17.60;58.80;;;;;;5012905;28;19977;-73
2022/10/02 04:34:48;;;;;;;;;;;17.60;58.80;;;;;;5013441;28;20262;-73
2022/10/02 04:37:19;;;;;;;;;;;17.60;58.70;;;;;;5013110;28;20337;-73
2022/10/02 04:39:51;;;;;;;;;;;17.60;58.70;;;;;;5011992;28;19914;-72
2022/10/02 04:42:19;;;;;;;;;;;17.60;58.90;;;;;;5012905;28;19914;-73
2022/10/02 04:44:51;;;;;;;;;;;17.60;58.80;;;;;;5013705;28;19913;-73
2022/10/02 04:47:22;;;;;;;;;;;17.60;59.00;;;;;;5012522;28;20284;-73
2022/10/02 04:50:06;;;;;;;;;;;17.50;59.00;;;;;;5013094;28;20010;-73
2022/10/02 04:52:37;;;;;;;;;;;17.50;58.90;;;;;;5013005;28;20016;-72
2022/10/02 04:55:06;;;;;;;;;;;17.50;59.10;;;;;;5012965;28;19914;-73
2022/10/02 04:57:34;;;;;;;;;;;17.50;59.00;;;;;;5013069;28;20331;-73
2022/10/02 05:00:06;;;;;;;;;;;17.50;59.00;;;;;;5013057;28;20284;-73
2022/10/02 05:02:38;;;;;;;;;;;17.50;58.90;;;;;;4994582;28;19917;-73
2022/10/02 05:05:03;;;;;;;;;;;17.50;58.90;;;;;;5012706;28;20280;-73
2022/10/02 05:07:41;;;;;;;;;;;17.50;58.90;;;;;;5012541;28;20008;-72
2022/10/02 05:10:16;;;;;;;;;;;17.60;59.00;;;;;;5011604;28;19916;-73
2022/10/02 05:12:57;;;;;;;;;;;17.50;59.00;;;;;;5011433;28;19909;-73
2022/10/02 05:15:25;;;;;;;;;;;17.60;58.90;;;;;;5012763;28;19909;-73
2022/10/02 05:17:53;;;;;;;;;;;17.60;58.80;;;;;;5012240;28;19913;-73
2022/10/02 05:20:24;;;;;;;;;;;17.60;58.80;;;;;;5012763;28;19976;-73
2022/10/02 05:23:10;;;;;;;;;;;17.60;58.90;;;;;;5012560;28;20360;-73
2022/10/02 05:25:39;;;;;;;;;;;17.60;59.00;;;;;;5011486;28;19996;-73
2022/10/02 05:28:04;;;;;;;;;;;17.60;58.80;;;;;;5012763;28;19910;-72
2022/10/02 05:30:37;;;;;;;;;;;17.60;58.70;;;;;;5012509;28;19914;-71
2022/10/02 05:33:09;;;;;;;;;;;17.60;58.60;;;;;;5011365;28;20427;-73
2022/10/02 05:35:57;;;;;;;;;;;17.60;58.70;;;;;;5012716;28;20330;-73
2022/10/02 05:38:42;;;;;;;;;;;17.60;58.60;;;;;;5004362;28;19916;-74
2022/10/02 05:41:16;;;;;;;;;;;17.60;58.60;;;;;;5012527;28;19952;-73
2022/10/02 05:43:45;;;;;;;;;;;17.60;58.60;;;;;;5012631;28;19913;-73
2022/10/02 05:46:15;;;;;;;;;;;17.60;58.60;;;;;;5010908;28;20452;-73
2022/10/02 05:48:43;;;;;;;;;;;17.70;58.70;;;;;;5027783;28;19921;-73
2022/10/02 05:51:13;;;;;;;;;;;17.70;58.70;;;;;;5027649;28;19916;-72
2022/10/02 05:53:43;;;;;;;;;;;17.60;58.70;;;;;;5011161;28;19916;-72
2022/10/02 05:56:31;;;;;;;;;;;17.60;58.70;;;;;;5027485;28;20204;-73
2022/10/02 05:59:08;;;;;;;;;;;17.60;58.70;;;;;;5004182;28;19910;-72
2022/10/02 06:01:38;;;;;;;;;;;17.70;58.80;;;;;;5010525;28;19917;-73
2022/10/02 06:04:26;;;;;;;;;;;17.60;58.70;;;;;;5011056;28;19934;-73
2022/10/02 06:06:53;;;;;;;;;;;17.60;58.70;;;;;;5010918;28;19944;-73
2022/10/02 06:09:27;;;;;;;;;;;17.60;58.70;;;;;;5013441;28;20404;-74
2022/10/02 06:12:03;;;;;;;;;;;17.60;58.60;;;;;;5015728;28;19917;-73
2022/10/02 06:14:33;;;;;;;;;;;17.60;58.70;;;;;;5015722;28;19960;-73
2022/10/02 06:17:17;;;;;;;;;;;17.60;58.70;;;;;;5014001;28;20004;-73
2022/10/02 06:19:53;;;;;;;;;;;17.70;58.70;;;;;;5014546;28;19962;-72
2022/10/02 06:22:19;;;;;;;;;;;17.60;58.70;;;;;;5014186;28;19917;-72
2022/10/02 06:24:55;;;;;;;;;;;17.60;58.70;;;;;;5014347;28;19914;-73
2022/10/02 06:27:30;;;;;;;;;;;17.60;58.70;;;;;;5014156;28;19914;-73
2022/10/02 06:30:03;;;;;;;;;;;17.60;58.70;;;;;;5015668;28;19914;-72
2022/10/02 06:32:47;;;;;;;;;;;17.60;58.70;;;;;;5013632;28;20292;-72
2022/10/02 06:35:14;;;;;;;;;;;17.60;58.90;;;;;;5015415;28;20344;-73
2022/10/02 06:37:47;;;;;;;;;;;17.60;58.80;;;;;;5013738;28;20285;-73
2022/10/02 06:40:23;;;;;;;;;;;17.50;58.70;;;;;;5014172;28;19910;-73
2022/10/02 06:43:00;;;;;;;;;;;17.50;58.80;;;;;;5014869;28;19918;-73
2022/10/02 06:45:27;;;;;;;;;;;17.50;58.80;;;;;;5015157;28;20350;-71
2022/10/02 06:48:02;;;;;;;;;;;17.50;58.80;;;;;;5014612;28;20361;-73
2022/10/02 06:50:45;;;;;;;;;;;17.50;58.80;;;;;;5015134;28;19916;-73
2022/10/02 06:53:18;;;;;;;;;;;17.50;58.80;;;;;;5015021;28;20051;-73
2022/10/02 06:55:59;;;;;;;;;;;17.50;58.80;;;;;;4997266;28;19909;-73
2022/10/02 06:58:38;;;;;;;;;;;17.50;58.90;;;;;;5020439;28;20391;-73
2022/10/02 07:01:05;;;;;;;;;;;17.50;58.90;;;;;;5014355;28;19913;-73
2022/10/02 07:03:48;;;;;;;;;;;17.50;58.90;;;;;;5014791;28;19986;-73
2022/10/02 07:06:15;;;;;;;;;;;17.60;58.90;;;;;;5013460;28;20397;-73
2022/10/02 07:08:46;;;;;;;;;;;17.50;58.80;;;;;;5013741;28;19910;-73
2022/10/02 07:11:23;;;;;;;;;;;17.50;58.80;;;;;;5014579;28;19910;-73
2022/10/02 07:14:08;;;;;;;;;;;17.60;58.80;;;;;;5014817;28;20387;-73
2022/10/02 07:16:46;;;;;;;;;;;17.60;58.80;;;;;;5014216;28;19932;-73
2022/10/02 07:19:25;;;;;;;;;;;17.60;58.70;;;;;;5014217;28;19913;-73
2022/10/02 07:22:09;;;;;;;;;;;17.60;58.70;;;;;;5013028;28;20302;-71
2022/10/02 07:24:47;;;;;;;;;;;17.60;58.70;;;;;;5014416;28;19921;-73
2022/10/02 07:27:22;;;;;;;;;;;17.60;58.70;;;;;;5020885;28;20407;-73
2022/10/02 07:30:14;;;;;;;;;;;17.60;58.70;;;;;;5013379;28;19944;-73
2022/10/02 07:32:46;;;;;;;;;;;17.60;58.60;;;;;;5011823;28;19910;-73
2022/10/02 07:35:18;;;;;;;;;;;17.60;58.70;;;;;;5013157;28;19916;-73
2022/10/02 07:38:02;;;;;;;;;;;17.60;58.80;;;;;;5012356;28;19920;-73
2022/10/02 07:40:30;;;;;;;;;;;17.60;58.70;;;;;;5014346;28;20348;-74
2022/10/02 07:42:59;;;;;;;;;;;17.60;58.80;;;;;;4996334;28;19917;-72
2022/10/02 07:45:32;;;;;;;;;;;17.60;58.80;;;;;;5012917;28;19920;-72
2022/10/02 07:48:04;;;;;;;;;;;17.60;58.80;;;;;;5013658;28;20008;-73
2022/10/02 07:50:38;;;;;;;;;;;17.60;58.80;;;;;;5012800;28;19915;-73
2022/10/02 07:53:07;;;;;;;;;;;17.60;58.80;;;;;;5012721;28;20007;-73
2022/10/02 07:55:32;;;;;;;;;;;17.60;58.90;;;;;;5014110;28;20440;-73
2022/10/02 07:57:58;;;;;;;;;;;17.60;58.90;;;;;;4995876;28;19914;-73
2022/10/02 08:00:24;;;;;;;;;;;17.60;58.90;;;;;;5013159;28;19914;-74
2022/10/02 08:02:55;;;;;;;;;;;17.60;58.90;;;;;;5011781;28;19913;-73
2022/10/02 08:05:25;;;;;;;;;;;17.60;59.00;;;;;;5013473;28;20162;-73
2022/10/02 08:07:51;;;;;;;;;;;17.60;59.00;;;;;;4995908;28;19960;-73
2022/10/02 08:10:18;;;;;;;;;;;17.60;59.00;;;;;;5029090;28;19956;-74
2022/10/02 08:12:46;;;;;;;;;;;17.60;58.90;;;;;;5028701;28;19910;-73
2022/10/02 08:15:16;;;;;;;;;;;17.60;59.00;;;;;;5028818;28;19913;-73
2022/10/02 08:18:05;;;;;;;;;;;17.60;59.00;;;;;;5028449;28;19910;-73
2022/10/02 08:20:35;;;;;;;;;;;17.50;59.00;;;;;;5005894;28;20012;-73
2022/10/02 08:23:01;;;;;;;;;;;17.60;59.10;;;;;;5028586;28;20309;-73
2022/10/02 08:25:42;;;;;;;;;;;17.60;59.70;;;;;;5028696;28;19909;-72
2022/10/02 08:28:15;;;;;;;;;;;17.60;58.90;;;;;;5026308;28;19913;-73
2022/10/02 08:30:40;;;;;;;;;;;17.60;59.00;;;;;;5011496;28;20385;-72
2022/10/02 08:33:19;;;;;;;;;;;17.60;58.90;;;;;;5013526;28;19971;-73
2022/10/02 08:36:06;;;;;;;;;;;17.60;59.00;;;;;;5011981;28;20300;-73
2022/10/02 08:38:39;;;;;;;;;;;17.60;59.10;;;;;;5013207;28;19917;-73
2022/10/02 08:41:11;;;;;;;;;;;17.60;59.10;;;;;;5028369;28;20429;-73
2022/10/02 08:43:39;;;;;;;;;;;17.50;59.00;;;;;;5013157;28;19936;-73
2022/10/02 08:46:05;;;;;;;;;;;17.60;59.20;;;;;;5012721;28;19917;-73
2022/10/02 08:48:53;;;;;;;;;;;17.60;59.10;;;;;;5013111;28;20381;-73
2022/10/02 08:51:38;;;;;;;;;;;17.60;59.10;;;;;;5013003;28;19909;-73
2022/10/02 08:54:10;;;;;;;;;;;17.60;59.10;;;;;;5028297;28;19936;-73
2022/10/02 08:56:42;;;;;;;;;;;17.60;59.10;;;;;;5028091;28;19913;-73
2022/10/02 08:59:27;;;;;;;;;;;17.60;59.10;;;;;;5028326;28;19932;-73
2022/10/02 09:01:55;;;;;;;;;;;17.60;59.10;;;;;;5012514;28;19987;-73
2022/10/02 09:04:39;;;;;;;;;;;17.60;59.20;;;;;;5013050;28;20004;-73
2022/10/02 09:07:25;;;;;;;;;;;17.50;59.20;;;;;;5012865;28;19932;-73
2022/10/02 09:09:53;;;;;;;;;;;17.50;59.20;;;;;;5012422;28;19981;-72
2022/10/02 09:12:20;;;;;;;;;;;17.50;59.30;;;;;;5012781;28;20365;-74
2022/10/02 09:14:48;;;;;;;;;;;17.50;59.30;;;;;;5012863;28;19920;-73
2022/10/02 09:17:20;;;;;;;;;;;17.50;59.90;;;;;;5012490;28;20496;-74
2022/10/02 09:19:48;;;;;;;;;;;17.50;59.20;;;;;;5012823;28;19960;-73
2022/10/02 09:22:16;;;;;;;;;;;17.60;59.30;;;;;;5012607;28;19960;-73
2022/10/02 09:24:45;;;;;;;;;;;17.60;59.20;;;;;;5011860;28;20000;-73
2022/10/02 09:27:14;;;;;;;;;;;17.60;59.30;;;;;;5011256;28;19913;-73
2022/10/02 09:29:54;;;;;;;;;;;17.60;59.30;;;;;;5012618;28;19917;-73
2022/10/02 09:32:42;;;;;;;;;;;17.60;59.40;;;;;;5010993;28;19910;-73
2022/10/02 09:35:10;;;;;;;;;;;17.50;59.30;;;;;;5011399;28;19910;-72
2022/10/02 09:37:42;;;;;;;;;;;17.60;59.40;;;;;;5012475;28;19914;-74
2022/10/02 09:40:27;;;;;;;;;;;17.60;59.40;;;;;;5034258;28;19909;-73
2022/10/02 09:42:58;;;;;;;;;;;17.60;59.30;;;;;;5012772;28;19973;-73
2022/10/02 09:45:42;;;;;;;;;;;17.60;59.30;;;;;;5015012;28;19910;-73
2022/10/02 09:48:10;;;;;;;;;;;17.60;59.30;;;;;;5016505;28;19909;-74
2022/10/02 09:50:36;;;;;;;;;;;17.60;59.30;;;;;;5016288;28;19967;-73
2022/10/02 09:53:04;;;;;;;;;;;17.60;59.30;;;;;;5016236;28;19909;-74
2022/10/02 09:55:43;;;;;;;;;;;17.60;59.30;;;;;;5016437;28;19913;-73
2022/10/02 09:58:15;;;;;;;;;;;17.60;59.30;;;;;;5015024;28;19909;-74
2022/10/02 10:00:40;;;;;;;;;;;17.60;59.30;;;;;;5016024;28;19994;-74
2022/10/02 10:03:09;;;;;;;;;;;17.60;59.40;;;;;;5015138;28;20337;-73
2022/10/02 10:05:47;;;;;;;;;;;17.60;59.50;;;;;;5015428;28;19995;-72
2022/10/02 10:08:19;;;;;;;;;;;17.60;59.60;;;;;;5015830;28;19910;-72
2022/10/02 10:10:59;;;;;;;;;;;17.60;59.60;;;;;;5031210;28;19993;-73
2022/10/02 10:13:24;;;;;;;;;;;17.60;59.70;;;;;;5015898;28;20361;-72
2022/10/02 10:15:56;;;;;;;;;;;17.50;59.60;;;;;;5015260;28;19914;-72
2022/10/02 10:18:25;;;;;;;;;;;17.60;59.70;;;;;;5030925;28;19932;-73
2022/10/02 10:21:09;;;;;;;;;;;17.60;59.80;;;;;;5015901;28;19914;-73
2022/10/02 10:23:35;;;;;;;;;;;17.60;59.70;;;;;;5015849;28;20434;-74
2022/10/02 10:26:27;;;;;;;;;;;17.60;59.60;;;;;;5015670;28;20000;-73
2022/10/02 10:29:11;;;;;;;;;;;17.70;59.60;;;;;;4992806;28;20270;-73
2022/10/02 10:31:50;;;;;;;;;;;17.60;59.60;;;;;;5030286;28;19916;-73
2022/10/02 10:34:34;;;;;;;;;;;17.70;59.60;;;;;;5030656;28;19917;-73
2022/10/02 10:40:09;;;;;;;;;;;17.70;59.50;;;;;;5015615;28;19972;-73
2022/10/02 10:42:52;;;;;;;;;;;17.70;59.60;;;;;;5015103;28;19921;-73
2022/10/02 10:45:21;;;;;;;;;;;17.70;59.60;;;;;;4997792;28;19959;-73
2022/10/02 10:48:02;;;;;;;;;;;17.70;59.60;;;;;;5014813;28;20386;-73
2022/10/02 10:50:34;;;;;;;;;;;17.70;59.80;;;;;;5015285;28;19909;-73
2022/10/02 10:53:06;;;;;;;;;;;17.60;59.90;;;;;;4997898;28;19996;-74
2022/10/02 10:55:32;;;;;;;;;;;17.70;59.90;;;;;;5015045;28;19999;-73
2022/10/02 10:58:00;;;;;;;;;;;17.70;60.00;;;;;;4994138;28;19972;-73
2022/10/02 11:00:58;;;;;;;;;;;17.70;60.00;;;;;;4995504;28;19914;-74
2022/10/02 11:03:46;;;;;;;;;;;17.70;60.00;;;;;;4972884;28;20016;-73
2022/10/02 11:06:26;;;;;;;;;;;17.70;60.10;;;;;;4994044;28;20001;-73
2022/10/02 11:09:10;;;;;;;;;;;17.70;60.10;;;;;;5005673;28;20419;-74
2022/10/02 11:11:45;;;;;;;;;;;17.70;60.20;;;;;;5029820;28;19913;-73
2022/10/02 11:14:19;;;;;;;;;;;17.70;60.30;;;;;;5030109;28;20301;-73
2022/10/02 11:16:58;;;;;;;;;;;17.70;60.20;;;;;;5029683;28;19921;-73
2022/10/02 11:19:33;;;;;;;;;;;17.70;60.30;;;;;;5029954;28;19921;-73
2022/10/02 11:22:06;;;;;;;;;;;17.80;60.40;;;;;;5029738;28;19913;-73
2022/10/02 11:24:31;;;;;;;;;;;17.70;60.30;;;;;;5014475;28;19910;-73
2022/10/02 11:26:59;;;;;;;;;;;17.70;60.20;;;;;;5014393;28;19955;-73
2022/10/02 11:29:32;;;;;;;;;;;17.80;60.30;;;;;;5014497;28;19984;-73
2022/10/02 11:31:58;;;;;;;;;;;17.70;60.30;;;;;;5035199;28;19913;-72
2022/10/02 11:34:42;;;;;;;;;;;17.70;60.50;;;;;;5014224;28;20040;-73
2022/10/02 11:37:25;;;;;;;;;;;17.70;60.40;;;;;;5014171;28;20349;-72
2022/10/02 11:40:10;;;;;;;;;;;17.80;60.50;;;;;;5014526;28;20373;-74
2022/10/02 11:42:41;;;;;;;;;;;17.80;60.40;;;;;;5013963;28;19917;-73
2022/10/02 11:45:17;;;;;;;;;;;17.80;60.50;;;;;;5003393;28;19964;-73
2022/10/02 11:47:47;;;;;;;;;;;17.80;60.50;;;;;;4995859;28;19909;-73
2022/10/02 11:50:18;;;;;;;;;;;17.90;60.60;;;;;;5012718;28;19910;-73
2022/10/02 11:52:47;;;;;;;;;;;17.90;60.50;;;;;;5012536;28;20374;-72
2022/10/02 11:55:27;;;;;;;;;;;17.90;60.40;;;;;;5012763;28;20416;-73
2022/10/02 11:57:59;;;;;;;;;;;17.90;60.40;;;;;;5012506;28;20431;-73
2022/10/02 12:00:43;;;;;;;;;;;17.90;60.50;;;;;;5014005;28;19920;-73
2022/10/02 12:03:12;;;;;;;;;;;17.90;60.50;;;;;;5012450;28;20015;-73
2022/10/02 12:05:41;;;;;;;;;;;17.90;60.50;;;;;;5013028;28;19921;-73
2022/10/02 12:08:36;;;;;;;;;;;18.00;60.50;;;;;;5013896;28;19953;-73
2022/10/02 12:11:05;;;;;;;;;;;18.00;60.60;;;;;;5000504;28;19909;-73
2022/10/02 12:13:49;;;;;;;;;;;18.00;60.50;;;;;;5028907;28;19967;-72
2022/10/02 12:16:14;;;;;;;;;;;18.00;60.50;;;;;;5013081;28;19913;-73
2022/10/02 12:18:40;;;;;;;;;;;18.00;61.40;;;;;;5013560;28;19914;-73
2022/10/02 12:27:14;;;;;;;;;;;18.00;60.70;;;;;;5026272;28;19917;-73
2022/10/02 12:29:46;;;;;;;;;;;18.10;60.70;;;;;;5013444;28;20045;-73
2022/10/02 12:32:22;;;;;;;;;;;18.10;60.80;;;;;;5012784;28;19910;-73
2022/10/02 12:34:55;;;;;;;;;;;18.10;60.70;;;;;;5013258;28;19909;-73
2022/10/02 12:37:36;;;;;;;;;;;18.10;60.70;;;;;;5001838;28;19969;-73
2022/10/02 12:40:08;;;;;;;;;;;18.10;60.70;;;;;;5013193;28;19909;-73
2022/10/02 12:42:53;;;;;;;;;;;18.10;60.80;;;;;;5012994;28;20302;-73
2022/10/02 12:45:22;;;;;;;;;;;18.10;60.80;;;;;;4972631;28;19909;-73
2022/10/02 12:47:47;;;;;;;;;;;18.10;60.90;;;;;;5012588;28;20389;-73
2022/10/02 12:50:28;;;;;;;;;;;18.10;60.80;;;;;;5013111;28;19909;-73
2022/10/02 12:53:01;;;;;;;;;;;18.20;60.90;;;;;;5013032;28;19916;-72
2022/10/02 12:55:46;;;;;;;;;;;18.20;60.90;;;;;;4979275;28;19916;-73
2022/10/02 12:58:19;;;;;;;;;;;18.10;60.90;;;;;;4995494;28;20008;-73
2022/10/02 13:00:47;;;;;;;;;;;18.20;61.00;;;;;;5011662;28;19913;-73
2022/10/02 13:03:32;;;;;;;;;;;18.20;61.00;;;;;;5011799;28;19917;-73
2022/10/02 13:06:15;;;;;;;;;;;18.20;61.00;;;;;;5012694;28;19925;-73
2022/10/02 13:08:50;;;;;;;;;;;18.20;61.00;;;;;;5012764;28;20366;-72
2022/10/02 13:11:36;;;;;;;;;;;18.20;61.00;;;;;;5012713;28;19913;-72
2022/10/02 13:14:20;;;;;;;;;;;18.20;61.00;;;;;;4995130;28;19909;-73
2022/10/02 13:17:04;;;;;;;;;;;18.20;61.10;;;;;;5012393;28;19920;-73
2022/10/02 13:19:35;;;;;;;;;;;18.20;61.20;;;;;;5015854;28;19991;-73
2022/10/02 13:22:10;;;;;;;;;;;18.20;61.30;;;;;;5016821;28;19960;-73
2022/10/02 13:24:47;;;;;;;;;;;18.10;61.30;;;;;;4999181;28;19986;-73
2022/10/02 13:27:17;;;;;;;;;;;18.10;61.40;;;;;;5016696;28;19916;-74
2022/10/02 13:30:04;;;;;;;;;;;18.10;61.50;;;;;;5015418;28;19941;-72
2022/10/02 13:32:39;;;;;;;;;;;18.10;61.50;;;;;;5014871;28;19909;-73
2022/10/02 13:35:15;;;;;;;;;;;18.10;61.50;;;;;;5016585;28;19957;-73
2022/10/02 13:37:41;;;;;;;;;;;18.10;61.60;;;;;;5015128;28;19913;-73
2022/10/02 13:40:12;;;;;;;;;;;18.10;61.60;;;;;;5016497;28;19910;-73
2022/10/02 13:42:41;;;;;;;;;;;18.20;61.60;;;;;;5014833;28;20369;-73
2022/10/02 13:45:15;;;;;;;;;;;18.20;61.60;;;;;;5031790;28;20270;-73
2022/10/02 13:47:40;;;;;;;;;;;18.20;62.00;;;;;;5014466;28;19913;-73
2022/10/02 13:50:15;;;;;;;;;;;18.20;61.60;;;;;;5016645;28;19910;-72
2022/10/02 13:52:44;;;;;;;;;;;18.20;61.50;;;;;;5016029;28;20027;-72
2022/10/02 13:55:29;;;;;;;;;;;18.20;61.60;;;;;;5016265;28;19916;-73
2022/10/02 13:58:13;;;;;;;;;;;18.20;61.50;;;;;;5031276;28;19917;-74
2022/10/02 14:00:45;;;;;;;;;;;18.20;61.60;;;;;;5015992;28;20377;-72
2022/10/02 14:03:24;;;;;;;;;;;18.30;61.60;;;;;;5031265;28;19921;-73
2022/10/02 14:05:51;;;;;;;;;;;18.30;61.50;;;;;;5030867;28;19921;-73
2022/10/02 14:08:42;;;;;;;;;;;18.30;61.50;;;;;;5028814;28;19956;-72
2022/10/02 14:11:08;;;;;;;;;;;18.30;62.20;;;;;;5011852;28;19917;-72
2022/10/02 14:13:33;;;;;;;;;;;18.30;61.40;;;;;;5014628;28;19910;-74
2022/10/02 14:16:09;;;;;;;;;;;18.30;61.40;;;;;;5015467;28;19981;-73
2022/10/02 14:18:35;;;;;;;;;;;18.30;61.40;;;;;;4998352;28;20274;-73
2022/10/02 14:21:19;;;;;;;;;;;18.30;61.50;;;;;;5015711;28;20012;-73
2022/10/02 14:24:03;;;;;;;;;;;18.30;61.40;;;;;;5015617;28;19918;-72
2022/10/02 14:26:37;;;;;;;;;;;18.30;61.40;;;;;;5015350;28;20289;-72
2022/10/02 14:29:21;;;;;;;;;;;18.30;61.30;;;;;;5013842;28;19981;-73
2022/10/02 14:32:04;;;;;;;;;;;18.30;61.30;;;;;;5015152;28;19909;-72
2022/10/02 14:34:39;;;;;;;;;;;18.30;61.30;;;;;;4997856;28;19910;-73
2022/10/02 14:37:27;;;;;;;;;;;18.30;61.30;;;;;;5014079;28;19920;-71
2022/10/02 14:39:53;;;;;;;;;;;18.30;61.30;;;;;;5014231;28;20281;-73
2022/10/02 14:42:19;;;;;;;;;;;18.30;61.20;;;;;;5013984;28;19913;-73
2022/10/02 14:44:50;;;;;;;;;;;18.30;61.20;;;;;;5015243;28;20448;-73
2022/10/02 14:47:20;;;;;;;;;;;18.30;61.10;;;;;;5014800;28;20296;-72
2022/10/02 14:49:57;;;;;;;;;;;18.30;61.20;;;;;;5014112;28;20020;-73
2022/10/02 14:52:45;;;;;;;;;;;18.30;61.10;;;;;;5015111;28;19960;-73
2022/10/02 14:55:29;;;;;;;;;;;18.30;61.10;;;;;;5014001;28;19917;-72
2022/10/02 14:57:58;;;;;;;;;;;18.30;61.20;;;;;;5013586;28;19936;-72
2022/10/02 15:00:23;;;;;;;;;;;18.30;61.20;;;;;;5013825;28;19909;-72